sensor_id;sensor_type;location;lat;lon;timestamp;temperature;humidity
24902;DHT22;31328;51.402;0.016;2022-07-21T00:00:53;20.80;83.80
24902;DHT22;31328;51.402;0.016;2022-07-21T00:03:20;20.80;83.90
24902;DHT22;31328;51.402;0.016;2022-07-21T00:05:47;20.80;83.90
24902;DHT22;31328;51.402;0.016;2022-07-21T00:08:13;20.80;83.80
24902;DHT22;31328;51.402;0.016;2022-07-21T00:10:40;20.80;83.70
24902;DHT22;31328;51.402;0.016;2022-07-21T00:13:06;20.80;83.80
24902;DHT22;31328;51.402;0.016;2022-07-21T00:15:33;20.70;83.60
24902;DHT22;31328;51.402;0.016;2022-07-21T00:18:00;20.70;83.70
24902;DHT22;31328;51.402;0.016;2022-07-21T00:20:27;20.70;83.90
24902;DHT22;31328;51.402;0.016;2022-07-21T00:22:56;20.70;84.10
24902;DHT22;31328;51.402;0.016;2022-07-21T00:25:23;20.70;84.30
24902;DHT22;31328;51.402;0.016;2022-07-21T00:27:49;20.70;84.60
24902;DHT22;31328;51.402;0.016;2022-07-21T00:30:16;20.70;85.10
24902;DHT22;31328;51.402;0.016;2022-07-21T00:32:43;20.60;85.30
24902;DHT22;31328;51.402;0.016;2022-07-21T00:35:10;20.50;85.30
24902;DHT22;31328;51.402;0.016;2022-07-21T00:37:37;20.50;85.70
24902;DHT22;31328;51.402;0.016;2022-07-21T00:40:05;20.40;86.10
24902;DHT22;31328;51.402;0.016;2022-07-21T00:42:33;20.30;86.80
24902;DHT22;31328;51.402;0.016;2022-07-21T00:45:00;20.20;87.10
24902;DHT22;31328;51.402;0.016;2022-07-21T00:47:30;20.20;87.40
24902;DHT22;31328;51.402;0.016;2022-07-21T00:49:59;20.20;87.80
24902;DHT22;31328;51.402;0.016;2022-07-21T00:52:26;20.10;88.20
24902;DHT22;31328;51.402;0.016;2022-07-21T00:54:53;20.00;88.40
24902;DHT22;31328;51.402;0.016;2022-07-21T00:57:20;20.00;88.70
24902;DHT22;31328;51.402;0.016;2022-07-21T00:59:46;20.00;88.90
24902;DHT22;31328;51.402;0.016;2022-07-21T01:02:13;19.90;89.10
24902;DHT22;31328;51.402;0.016;2022-07-21T01:04:40;19.90;89.20
24902;DHT22;31328;51.402;0.016;2022-07-21T01:07:07;19.90;89.40
24902;DHT22;31328;51.402;0.016;2022-07-21T01:09:34;19.90;89.60
24902;DHT22;31328;51.402;0.016;2022-07-21T01:12:02;19.80;89.60
24902;DHT22;31328;51.402;0.016;2022-07-21T01:14:29;19.80;89.80
24902;DHT22;31328;51.402;0.016;2022-07-21T01:16:55;19.80;90.00
24902;DHT22;31328;51.402;0.016;2022-07-21T01:19:22;19.80;89.80
24902;DHT22;31328;51.402;0.016;2022-07-21T01:21:49;19.80;89.70
24902;DHT22;31328;51.402;0.016;2022-07-21T01:24:16;19.80;89.80
24902;DHT22;31328;51.402;0.016;2022-07-21T01:26:48;19.70;89.70
24902;DHT22;31328;51.402;0.016;2022-07-21T01:29:16;19.70;89.60
24902;DHT22;31328;51.402;0.016;2022-07-21T01:31:45;19.70;89.60
24902;DHT22;31328;51.402;0.016;2022-07-21T01:34:11;19.70;89.60
24902;DHT22;31328;51.402;0.016;2022-07-21T01:36:38;19.70;89.70
24902;DHT22;31328;51.402;0.016;2022-07-21T01:39:06;19.60;89.60
24902;DHT22;31328;51.402;0.016;2022-07-21T01:41:51;19.60;89.60
24902;DHT22;31328;51.402;0.016;2022-07-21T01:44:18;19.60;89.40
24902;DHT22;31328;51.402;0.016;2022-07-21T01:46:47;19.60;89.30
24902;DHT22;31328;51.402;0.016;2022-07-21T01:49:17;19.60;89.40
24902;DHT22;31328;51.402;0.016;2022-07-21T01:51:43;19.60;89.40
24902;DHT22;31328;51.402;0.016;2022-07-21T01:54:10;19.60;89.40
24902;DHT22;31328;51.402;0.016;2022-07-21T01:56:38;19.50;89.20
24902;DHT22;31328;51.402;0.016;2022-07-21T01:59:05;19.50;89.30
24902;DHT22;31328;51.402;0.016;2022-07-21T02:01:32;19.50;89.40
24902;DHT22;31328;51.402;0.016;2022-07-21T02:04:00;19.40;89.60
24902;DHT22;31328;51.402;0.016;2022-07-21T02:06:28;19.40;89.70
24902;DHT22;31328;51.402;0.016;2022-07-21T02:08:54;19.40;89.90
24902;DHT22;31328;51.402;0.016;2022-07-21T02:11:21;19.40;90.00
24902;DHT22;31328;51.402;0.016;2022-07-21T02:13:48;19.30;90.00
24902;DHT22;31328;51.402;0.016;2022-07-21T02:16:15;19.30;90.00
24902;DHT22;31328;51.402;0.016;2022-07-21T02:18:41;19.30;90.10
24902;DHT22;31328;51.402;0.016;2022-07-21T02:21:08;19.30;90.20
24902;DHT22;31328;51.402;0.016;2022-07-21T02:23:35;19.30;90.20
24902;DHT22;31328;51.402;0.016;2022-07-21T02:26:02;19.20;90.10
24902;DHT22;31328;51.402;0.016;2022-07-21T02:28:28;19.20;90.20
24902;DHT22;31328;51.402;0.016;2022-07-21T02:30:55;19.20;90.20
24902;DHT22;31328;51.402;0.016;2022-07-21T02:33:22;19.20;90.20
24902;DHT22;31328;51.402;0.016;2022-07-21T02:35:48;19.20;90.20
24902;DHT22;31328;51.402;0.016;2022-07-21T02:38:15;19.20;90.20
24902;DHT22;31328;51.402;0.016;2022-07-21T02:40:41;19.20;90.20
24902;DHT22;31328;51.402;0.016;2022-07-21T02:43:08;19.20;90.10
24902;DHT22;31328;51.402;0.016;2022-07-21T02:45:35;19.20;90.00
24902;DHT22;31328;51.402;0.016;2022-07-21T02:48:05;19.20;90.00
24902;DHT22;31328;51.402;0.016;2022-07-21T02:50:34;19.20;90.00
24902;DHT22;31328;51.402;0.016;2022-07-21T02:53:06;19.20;90.00
24902;DHT22;31328;51.402;0.016;2022-07-21T02:55:34;19.20;90.00
24902;DHT22;31328;51.402;0.016;2022-07-21T02:58:11;19.20;90.00
24902;DHT22;31328;51.402;0.016;2022-07-21T03:00:41;19.20;90.00
24902;DHT22;31328;51.402;0.016;2022-07-21T03:03:08;19.20;89.80
24902;DHT22;31328;51.402;0.016;2022-07-21T03:05:36;19.10;89.70
24902;DHT22;31328;51.402;0.016;2022-07-21T03:08:04;19.10;89.70
24902;DHT22;31328;51.402;0.016;2022-07-21T03:10:31;19.10;89.70
24902;DHT22;31328;51.402;0.016;2022-07-21T03:12:58;19.10;89.70
24902;DHT22;31328;51.402;0.016;2022-07-21T03:15:24;19.10;89.70
24902;DHT22;31328;51.402;0.016;2022-07-21T03:17:53;19.10;89.70
24902;DHT22;31328;51.402;0.016;2022-07-21T03:20:21;19.10;89.50
24902;DHT22;31328;51.402;0.016;2022-07-21T03:22:48;19.10;89.60
24902;DHT22;31328;51.402;0.016;2022-07-21T03:25:14;19.10;89.60
24902;DHT22;31328;51.402;0.016;2022-07-21T03:27:40;19.20;89.70
24902;DHT22;31328;51.402;0.016;2022-07-21T03:30:08;19.20;89.70
24902;DHT22;31328;51.402;0.016;2022-07-21T03:32:35;19.20;89.80
24902;DHT22;31328;51.402;0.016;2022-07-21T03:35:03;19.20;89.80
24902;DHT22;31328;51.402;0.016;2022-07-21T03:37:29;19.20;89.70
24902;DHT22;31328;51.402;0.016;2022-07-21T03:39:57;19.20;89.70
24902;DHT22;31328;51.402;0.016;2022-07-21T03:42:23;19.10;89.70
24902;DHT22;31328;51.402;0.016;2022-07-21T03:44:49;19.10;89.70
24902;DHT22;31328;51.402;0.016;2022-07-21T03:47:16;19.10;89.70
24902;DHT22;31328;51.402;0.016;2022-07-21T03:49:42;19.10;89.70
24902;DHT22;31328;51.402;0.016;2022-07-21T03:52:09;19.10;89.80
24902;DHT22;31328;51.402;0.016;2022-07-21T03:54:35;19.10;89.90
24902;DHT22;31328;51.402;0.016;2022-07-21T03:57:01;19.10;90.00
24902;DHT22;31328;51.402;0.016;2022-07-21T03:59:28;19.10;90.40
24902;DHT22;31328;51.402;0.016;2022-07-21T04:01:54;19.10;90.10
24902;DHT22;31328;51.402;0.016;2022-07-21T04:04:20;19.10;90.20
24902;DHT22;31328;51.402;0.016;2022-07-21T04:06:47;19.00;90.10
24902;DHT22;31328;51.402;0.016;2022-07-21T04:09:13;19.00;90.20
24902;DHT22;31328;51.402;0.016;2022-07-21T04:11:40;19.00;90.10
24902;DHT22;31328;51.402;0.016;2022-07-21T04:14:06;19.00;90.10
24902;DHT22;31328;51.402;0.016;2022-07-21T04:16:33;19.00;90.10
24902;DHT22;31328;51.402;0.016;2022-07-21T04:18:59;19.00;90.10
24902;DHT22;31328;51.402;0.016;2022-07-21T04:21:25;19.00;90.10
24902;DHT22;31328;51.402;0.016;2022-07-21T04:23:52;19.00;90.10
24902;DHT22;31328;51.402;0.016;2022-07-21T04:26:18;19.00;90.20
24902;DHT22;31328;51.402;0.016;2022-07-21T04:28:45;19.00;90.30
24902;DHT22;31328;51.402;0.016;2022-07-21T04:31:11;19.00;90.30
24902;DHT22;31328;51.402;0.016;2022-07-21T04:33:38;19.00;90.20
24902;DHT22;31328;51.402;0.016;2022-07-21T04:36:04;19.00;90.20
24902;DHT22;31328;51.402;0.016;2022-07-21T04:38:31;19.00;90.10
24902;DHT22;31328;51.402;0.016;2022-07-21T04:40:57;19.00;90.20
24902;DHT22;31328;51.402;0.016;2022-07-21T04:43:23;19.00;90.20
24902;DHT22;31328;51.402;0.016;2022-07-21T04:45:50;19.00;90.50
24902;DHT22;31328;51.402;0.016;2022-07-21T04:48:16;18.90;90.10
24902;DHT22;31328;51.402;0.016;2022-07-21T04:50:43;18.90;90.10
24902;DHT22;31328;51.402;0.016;2022-07-21T04:53:09;18.90;90.10
24902;DHT22;31328;51.402;0.016;2022-07-21T04:55:37;18.90;90.10
24902;DHT22;31328;51.402;0.016;2022-07-21T04:58:03;18.80;90.00
24902;DHT22;31328;51.402;0.016;2022-07-21T05:00:30;18.90;90.10
24902;DHT22;31328;51.402;0.016;2022-07-21T05:02:56;18.90;90.10
24902;DHT22;31328;51.402;0.016;2022-07-21T05:05:23;18.90;90.20
24902;DHT22;31328;51.402;0.016;2022-07-21T05:07:49;18.90;90.20
24902;DHT22;31328;51.402;0.016;2022-07-21T05:10:17;18.90;90.20
24902;DHT22;31328;51.402;0.016;2022-07-21T05:12:44;18.90;90.10
24902;DHT22;31328;51.402;0.016;2022-07-21T05:15:11;18.90;90.20
24902;DHT22;31328;51.402;0.016;2022-07-21T05:17:39;18.90;90.20
24902;DHT22;31328;51.402;0.016;2022-07-21T05:20:07;18.90;90.30
24902;DHT22;31328;51.402;0.016;2022-07-21T05:22:34;18.90;90.40
24902;DHT22;31328;51.402;0.016;2022-07-21T05:25:00;18.90;90.50
24902;DHT22;31328;51.402;0.016;2022-07-21T05:27:27;18.90;90.30
24902;DHT22;31328;51.402;0.016;2022-07-21T05:29:53;18.90;90.50
24902;DHT22;31328;51.402;0.016;2022-07-21T05:32:21;18.90;90.50
24902;DHT22;31328;51.402;0.016;2022-07-21T05:34:47;19.00;90.50
24902;DHT22;31328;51.402;0.016;2022-07-21T05:37:13;19.00;90.50
24902;DHT22;31328;51.402;0.016;2022-07-21T05:39:40;19.00;90.60
24902;DHT22;31328;51.402;0.016;2022-07-21T05:42:06;19.00;90.60
24902;DHT22;31328;51.402;0.016;2022-07-21T05:44:33;19.10;90.60
24902;DHT22;31328;51.402;0.016;2022-07-21T05:46:59;19.10;90.70
24902;DHT22;31328;51.402;0.016;2022-07-21T05:49:26;19.10;90.60
24902;DHT22;31328;51.402;0.016;2022-07-21T05:51:52;19.20;90.70
24902;DHT22;31328;51.402;0.016;2022-07-21T05:54:18;19.30;90.60
24902;DHT22;31328;51.402;0.016;2022-07-21T05:56:45;19.30;90.50
24902;DHT22;31328;51.402;0.016;2022-07-21T05:59:11;19.30;90.60
24902;DHT22;31328;51.402;0.016;2022-07-21T06:01:38;19.40;90.80
24902;DHT22;31328;51.402;0.016;2022-07-21T06:04:04;19.50;90.70
24902;DHT22;31328;51.402;0.016;2022-07-21T06:06:31;19.50;90.60
24902;DHT22;31328;51.402;0.016;2022-07-21T06:08:57;19.50;90.40
24902;DHT22;31328;51.402;0.016;2022-07-21T06:11:23;19.50;90.30
24902;DHT22;31328;51.402;0.016;2022-07-21T06:13:50;19.60;90.20
24902;DHT22;31328;51.402;0.016;2022-07-21T06:16:17;19.60;90.20
24902;DHT22;31328;51.402;0.016;2022-07-21T06:18:43;19.70;90.30
24902;DHT22;31328;51.402;0.016;2022-07-21T06:21:09;19.70;90.20
24902;DHT22;31328;51.402;0.016;2022-07-21T06:23:36;19.70;90.20
24902;DHT22;31328;51.402;0.016;2022-07-21T06:26:02;19.80;90.10
24902;DHT22;31328;51.402;0.016;2022-07-21T06:28:29;19.80;90.00
24902;DHT22;31328;51.402;0.016;2022-07-21T06:30:58;19.80;90.00
24902;DHT22;31328;51.402;0.016;2022-07-21T06:33:24;19.90;89.90
24902;DHT22;31328;51.402;0.016;2022-07-21T06:35:51;19.90;90.00
24902;DHT22;31328;51.402;0.016;2022-07-21T06:38:17;20.00;89.90
24902;DHT22;31328;51.402;0.016;2022-07-21T06:40:44;20.00;89.50
24902;DHT22;31328;51.402;0.016;2022-07-21T06:43:11;20.10;89.50
24902;DHT22;31328;51.402;0.016;2022-07-21T06:45:38;20.10;89.20
24902;DHT22;31328;51.402;0.016;2022-07-21T06:48:07;20.10;88.90
24902;DHT22;31328;51.402;0.016;2022-07-21T06:50:34;20.20;88.60
24902;DHT22;31328;51.402;0.016;2022-07-21T06:53:01;20.20;88.70
24902;DHT22;31328;51.402;0.016;2022-07-21T06:55:28;20.20;88.60
24902;DHT22;31328;51.402;0.016;2022-07-21T06:57:54;20.20;88.40
24902;DHT22;31328;51.402;0.016;2022-07-21T07:00:21;20.20;88.30
24902;DHT22;31328;51.402;0.016;2022-07-21T07:02:48;20.30;88.40
24902;DHT22;31328;51.402;0.016;2022-07-21T07:05:14;20.30;88.60
24902;DHT22;31328;51.402;0.016;2022-07-21T07:07:41;20.30;88.50
24902;DHT22;31328;51.402;0.016;2022-07-21T07:10:08;20.40;88.30
24902;DHT22;31328;51.402;0.016;2022-07-21T07:12:34;20.40;88.20
24902;DHT22;31328;51.402;0.016;2022-07-21T07:15:02;20.40;88.00
24902;DHT22;31328;51.402;0.016;2022-07-21T07:17:29;20.50;88.10
24902;DHT22;31328;51.402;0.016;2022-07-21T07:19:55;20.60;88.30
24902;DHT22;31328;51.402;0.016;2022-07-21T07:22:22;20.60;88.20
24902;DHT22;31328;51.402;0.016;2022-07-21T07:24:48;20.70;88.00
24902;DHT22;31328;51.402;0.016;2022-07-21T07:27:14;20.80;87.80
24902;DHT22;31328;51.402;0.016;2022-07-21T07:29:41;20.80;87.30
24902;DHT22;31328;51.402;0.016;2022-07-21T07:32:08;20.90;87.20
24902;DHT22;31328;51.402;0.016;2022-07-21T07:34:35;21.00;87.20
24902;DHT22;31328;51.402;0.016;2022-07-21T07:37:01;21.00;87.00
24902;DHT22;31328;51.402;0.016;2022-07-21T07:39:27;21.00;86.70
24902;DHT22;31328;51.402;0.016;2022-07-21T07:41:54;21.10;86.50
24902;DHT22;31328;51.402;0.016;2022-07-21T07:44:22;21.10;86.30
24902;DHT22;31328;51.402;0.016;2022-07-21T07:46:48;21.10;86.20
24902;DHT22;31328;51.402;0.016;2022-07-21T07:49:16;21.20;86.40
24902;DHT22;31328;51.402;0.016;2022-07-21T07:51:43;21.20;86.40
24902;DHT22;31328;51.402;0.016;2022-07-21T07:54:09;21.30;86.20
24902;DHT22;31328;51.402;0.016;2022-07-21T07:56:36;21.30;86.10
24902;DHT22;31328;51.402;0.016;2022-07-21T07:59:02;21.40;85.90
24902;DHT22;31328;51.402;0.016;2022-07-21T08:01:29;21.40;85.70
24902;DHT22;31328;51.402;0.016;2022-07-21T08:03:55;21.50;85.60
24902;DHT22;31328;51.402;0.016;2022-07-21T08:06:22;21.50;85.30
24902;DHT22;31328;51.402;0.016;2022-07-21T08:08:48;21.60;85.10
24902;DHT22;31328;51.402;0.016;2022-07-21T08:11:15;21.70;85.00
24902;DHT22;31328;51.402;0.016;2022-07-21T08:13:42;21.70;84.90
24902;DHT22;31328;51.402;0.016;2022-07-21T08:16:08;21.80;84.70
24902;DHT22;31328;51.402;0.016;2022-07-21T08:18:34;21.90;84.40
24902;DHT22;31328;51.402;0.016;2022-07-21T08:21:01;22.00;83.90
24902;DHT22;31328;51.402;0.016;2022-07-21T08:23:27;22.00;84.60
24902;DHT22;31328;51.402;0.016;2022-07-21T08:25:54;22.10;83.60
24902;DHT22;31328;51.402;0.016;2022-07-21T08:28:20;22.20;83.30
24902;DHT22;31328;51.402;0.016;2022-07-21T08:30:46;22.20;83.10
24902;DHT22;31328;51.402;0.016;2022-07-21T08:33:13;22.30;82.70
24902;DHT22;31328;51.402;0.016;2022-07-21T08:35:39;22.40;82.60
24902;DHT22;31328;51.402;0.016;2022-07-21T08:38:08;22.40;82.60
24902;DHT22;31328;51.402;0.016;2022-07-21T08:40:37;22.40;82.90
24902;DHT22;31328;51.402;0.016;2022-07-21T08:43:05;22.50;82.30
24902;DHT22;31328;51.402;0.016;2022-07-21T08:45:32;22.50;82.20
24902;DHT22;31328;51.402;0.016;2022-07-21T08:47:59;22.50;82.20
24902;DHT22;31328;51.402;0.016;2022-07-21T08:50:29;22.50;82.10
24902;DHT22;31328;51.402;0.016;2022-07-21T08:52:56;22.50;81.60
24902;DHT22;31328;51.402;0.016;2022-07-21T08:55:23;22.50;81.40
24902;DHT22;31328;51.402;0.016;2022-07-21T08:57:50;22.50;82.10
24902;DHT22;31328;51.402;0.016;2022-07-21T09:00:16;22.50;81.20
24902;DHT22;31328;51.402;0.016;2022-07-21T09:02:43;22.50;81.20
24902;DHT22;31328;51.402;0.016;2022-07-21T09:05:10;22.50;81.10
24902;DHT22;31328;51.402;0.016;2022-07-21T09:07:56;22.60;81.10
24902;DHT22;31328;51.402;0.016;2022-07-21T09:10:26;22.60;80.90
24902;DHT22;31328;51.402;0.016;2022-07-21T09:12:56;22.60;80.70
24902;DHT22;31328;51.402;0.016;2022-07-21T09:15:24;22.70;80.30
24902;DHT22;31328;51.402;0.016;2022-07-21T09:18:05;22.70;80.00
24902;DHT22;31328;51.402;0.016;2022-07-21T09:20:33;22.80;80.20
24902;DHT22;31328;51.402;0.016;2022-07-21T09:23:11;22.80;80.30
24902;DHT22;31328;51.402;0.016;2022-07-21T09:25:42;22.90;80.00
24902;DHT22;31328;51.402;0.016;2022-07-21T09:28:20;22.80;79.30
24902;DHT22;31328;51.402;0.016;2022-07-21T09:36:07;22.90;79.30
24902;DHT22;31328;51.402;0.016;2022-07-21T09:41:20;23.00;78.80
24902;DHT22;31328;51.402;0.016;2022-07-21T09:43:52;23.10;78.70
24902;DHT22;31328;51.402;0.016;2022-07-21T09:46:22;23.30;78.20
24902;DHT22;31328;51.402;0.016;2022-07-21T09:48:52;23.40;77.80
24902;DHT22;31328;51.402;0.016;2022-07-21T09:54:02;23.60;77.00
24902;DHT22;31328;51.402;0.016;2022-07-21T09:56:37;23.70;76.50
24902;DHT22;31328;51.402;0.016;2022-07-21T09:59:06;23.80;76.20
24902;DHT22;31328;51.402;0.016;2022-07-21T10:01:33;23.90;75.80
24902;DHT22;31328;51.402;0.016;2022-07-21T10:04:00;24.00;75.80
24902;DHT22;31328;51.402;0.016;2022-07-21T10:06:37;24.10;75.70
24902;DHT22;31328;51.402;0.016;2022-07-21T10:09:06;24.20;75.80
24902;DHT22;31328;51.402;0.016;2022-07-21T10:11:33;24.30;74.80
24902;DHT22;31328;51.402;0.016;2022-07-21T10:13:59;24.40;74.40
24902;DHT22;31328;51.402;0.016;2022-07-21T10:16:26;24.40;74.30
24902;DHT22;31328;51.402;0.016;2022-07-21T10:19:04;24.40;74.40
24902;DHT22;31328;51.402;0.016;2022-07-21T10:24:27;24.60;74.30
24902;DHT22;31328;51.402;0.016;2022-07-21T10:27:02;24.60;74.10
24902;DHT22;31328;51.402;0.016;2022-07-21T10:32:17;24.60;73.40
24902;DHT22;31328;51.402;0.016;2022-07-21T10:34:44;24.70;73.50
24902;DHT22;31328;51.402;0.016;2022-07-21T10:45:32;24.80;72.60
24902;DHT22;31328;51.402;0.016;2022-07-21T10:48:00;24.80;72.30
24902;DHT22;31328;51.402;0.016;2022-07-21T10:53:02;25.00;71.90
24902;DHT22;31328;51.402;0.016;2022-07-21T10:55:35;25.00;71.50
24902;DHT22;31328;51.402;0.016;2022-07-21T11:01:25;25.20;71.40
24902;DHT22;31328;51.402;0.016;2022-07-21T11:03:44;25.20;70.70
24902;DHT22;31328;51.402;0.016;2022-07-21T11:06:24;25.30;70.80
24902;DHT22;31328;51.402;0.016;2022-07-21T11:08:54;25.40;70.60
24902;DHT22;31328;51.402;0.016;2022-07-21T11:11:34;25.40;70.40
24902;DHT22;31328;51.402;0.016;2022-07-21T11:14:12;25.60;70.40
24902;DHT22;31328;51.402;0.016;2022-07-21T11:24:42;25.70;69.00
24902;DHT22;31328;51.402;0.016;2022-07-21T11:27:20;25.70;69.20
24902;DHT22;31328;51.402;0.016;2022-07-21T11:29:48;25.70;69.00
24902;DHT22;31328;51.402;0.016;2022-07-21T11:32:15;25.80;68.90
24902;DHT22;31328;51.402;0.016;2022-07-21T11:34:49;25.80;68.60
24902;DHT22;31328;51.402;0.016;2022-07-21T11:37:27;25.80;68.50
24902;DHT22;31328;51.402;0.016;2022-07-21T11:39:54;25.80;68.70
24902;DHT22;31328;51.402;0.016;2022-07-21T11:42:21;25.80;68.70
24902;DHT22;31328;51.402;0.016;2022-07-21T11:44:47;25.80;68.60
24902;DHT22;31328;51.402;0.016;2022-07-21T11:47:15;25.80;69.50
24902;DHT22;31328;51.402;0.016;2022-07-21T11:49:42;25.80;68.60
24902;DHT22;31328;51.402;0.016;2022-07-21T11:52:14;25.80;68.50
24902;DHT22;31328;51.402;0.016;2022-07-21T11:54:50;25.80;68.10
24902;DHT22;31328;51.402;0.016;2022-07-21T11:57:19;25.80;68.00
24902;DHT22;31328;51.402;0.016;2022-07-21T11:59:47;25.80;67.90
24902;DHT22;31328;51.402;0.016;2022-07-21T12:02:18;25.80;67.90
24902;DHT22;31328;51.402;0.016;2022-07-21T12:04:47;25.80;67.70
24902;DHT22;31328;51.402;0.016;2022-07-21T12:09:45;25.80;67.40
24902;DHT22;31328;51.402;0.016;2022-07-21T12:12:12;25.80;67.40
24902;DHT22;31328;51.402;0.016;2022-07-21T12:14:47;25.80;67.40
24902;DHT22;31328;51.402;0.016;2022-07-21T12:17:32;25.80;67.00
24902;DHT22;31328;51.402;0.016;2022-07-21T12:19:59;25.80;67.10
24902;DHT22;31328;51.402;0.016;2022-07-21T12:22:37;25.80;67.40
24902;DHT22;31328;51.402;0.016;2022-07-21T12:25:05;25.90;67.40
24902;DHT22;31328;51.402;0.016;2022-07-21T12:27:41;25.90;67.00
24902;DHT22;31328;51.402;0.016;2022-07-21T12:30:10;26.00;66.40
24902;DHT22;31328;51.402;0.016;2022-07-21T12:33:05;26.00;66.30
24902;DHT22;31328;51.402;0.016;2022-07-21T12:35:32;26.10;66.40
24902;DHT22;31328;51.402;0.016;2022-07-21T12:38:03;26.10;66.20
24902;DHT22;31328;51.402;0.016;2022-07-21T12:40:31;26.20;65.70
24902;DHT22;31328;51.402;0.016;2022-07-21T12:43:15;26.20;65.60
24902;DHT22;31328;51.402;0.016;2022-07-21T12:48:32;26.20;65.60
24902;DHT22;31328;51.402;0.016;2022-07-21T12:51:15;26.10;65.50
24902;DHT22;31328;51.402;0.016;2022-07-21T12:56:12;26.00;65.60
24902;DHT22;31328;51.402;0.016;2022-07-21T12:58:39;25.90;65.60
24902;DHT22;31328;51.402;0.016;2022-07-21T13:01:06;25.80;66.10
24902;DHT22;31328;51.402;0.016;2022-07-21T13:03:34;25.70;66.10
24902;DHT22;31328;51.402;0.016;2022-07-21T13:06:02;25.60;66.20
24902;DHT22;31328;51.402;0.016;2022-07-21T13:08:29;25.60;65.80
24902;DHT22;31328;51.402;0.016;2022-07-21T13:10:56;25.40;65.60
24902;DHT22;31328;51.402;0.016;2022-07-21T13:13:23;25.40;65.70
24902;DHT22;31328;51.402;0.016;2022-07-21T13:15:50;25.30;65.70
24902;DHT22;31328;51.402;0.016;2022-07-21T13:18:16;25.20;65.80
24902;DHT22;31328;51.402;0.016;2022-07-21T13:20:42;25.20;66.20
24902;DHT22;31328;51.402;0.016;2022-07-21T13:23:09;25.20;66.30
24902;DHT22;31328;51.402;0.016;2022-07-21T13:25:36;25.10;66.30
24902;DHT22;31328;51.402;0.016;2022-07-21T13:28:03;25.10;66.00
24902;DHT22;31328;51.402;0.016;2022-07-21T13:30:29;25.10;65.70
24902;DHT22;31328;51.402;0.016;2022-07-21T13:32:56;25.10;65.60
24902;DHT22;31328;51.402;0.016;2022-07-21T13:35:23;25.00;65.40
24902;DHT22;31328;51.402;0.016;2022-07-21T13:37:49;25.00;65.60
24902;DHT22;31328;51.402;0.016;2022-07-21T13:40:15;25.00;65.70
24902;DHT22;31328;51.402;0.016;2022-07-21T13:42:42;25.00;65.50
24902;DHT22;31328;51.402;0.016;2022-07-21T13:45:08;25.00;65.50
24902;DHT22;31328;51.402;0.016;2022-07-21T13:47:37;25.00;65.40
24902;DHT22;31328;51.402;0.016;2022-07-21T13:50:04;25.00;65.50
24902;DHT22;31328;51.402;0.016;2022-07-21T13:52:34;25.00;65.20
24902;DHT22;31328;51.402;0.016;2022-07-21T13:55:01;25.00;65.30
24902;DHT22;31328;51.402;0.016;2022-07-21T13:57:28;24.90;65.40
24902;DHT22;31328;51.402;0.016;2022-07-21T13:59:54;24.90;65.40
24902;DHT22;31328;51.402;0.016;2022-07-21T14:02:21;24.90;65.10
24902;DHT22;31328;51.402;0.016;2022-07-21T14:04:47;24.90;65.00
24902;DHT22;31328;51.402;0.016;2022-07-21T14:07:13;24.80;64.90
24902;DHT22;31328;51.402;0.016;2022-07-21T14:09:41;24.80;65.10
24902;DHT22;31328;51.402;0.016;2022-07-21T14:12:08;24.80;65.10
24902;DHT22;31328;51.402;0.016;2022-07-21T14:14:37;24.70;65.00
24902;DHT22;31328;51.402;0.016;2022-07-21T14:17:04;24.70;65.50
24902;DHT22;31328;51.402;0.016;2022-07-21T14:19:30;24.60;64.90
24902;DHT22;31328;51.402;0.016;2022-07-21T14:21:56;24.60;65.10
24902;DHT22;31328;51.402;0.016;2022-07-21T14:24:23;24.60;65.20
24902;DHT22;31328;51.402;0.016;2022-07-21T14:27:08;24.60;65.10
24902;DHT22;31328;51.402;0.016;2022-07-21T14:29:34;24.50;65.10
24902;DHT22;31328;51.402;0.016;2022-07-21T14:32:01;24.50;65.20
24902;DHT22;31328;51.402;0.016;2022-07-21T14:34:27;24.50;65.30
24902;DHT22;31328;51.402;0.016;2022-07-21T14:36:53;24.40;65.50
24902;DHT22;31328;51.402;0.016;2022-07-21T14:39:20;24.40;65.50
24902;DHT22;31328;51.402;0.016;2022-07-21T14:41:46;24.40;65.60
24902;DHT22;31328;51.402;0.016;2022-07-21T14:44:13;24.30;65.30
24902;DHT22;31328;51.402;0.016;2022-07-21T14:46:40;24.30;65.30
24902;DHT22;31328;51.402;0.016;2022-07-21T14:49:06;24.30;65.10
24902;DHT22;31328;51.402;0.016;2022-07-21T14:51:33;24.20;65.10
24902;DHT22;31328;51.402;0.016;2022-07-21T14:53:59;24.20;65.10
24902;DHT22;31328;51.402;0.016;2022-07-21T14:56:26;24.20;65.10
24902;DHT22;31328;51.402;0.016;2022-07-21T14:58:52;24.10;64.90
24902;DHT22;31328;51.402;0.016;2022-07-21T15:01:18;24.10;64.90
24902;DHT22;31328;51.402;0.016;2022-07-21T15:03:45;24.10;64.80
24902;DHT22;31328;51.402;0.016;2022-07-21T15:06:11;24.10;64.80
24902;DHT22;31328;51.402;0.016;2022-07-21T15:08:38;24.10;64.60
24902;DHT22;31328;51.402;0.016;2022-07-21T15:11:04;24.00;64.60
24902;DHT22;31328;51.402;0.016;2022-07-21T15:13:31;24.00;64.70
24902;DHT22;31328;51.402;0.016;2022-07-21T15:15:57;24.10;64.70
24902;DHT22;31328;51.402;0.016;2022-07-21T15:18:24;24.00;64.40
24902;DHT22;31328;51.402;0.016;2022-07-21T15:20:50;24.00;64.40
24902;DHT22;31328;51.402;0.016;2022-07-21T15:23:17;24.00;64.20
24902;DHT22;31328;51.402;0.016;2022-07-21T15:25:43;24.00;64.20
24902;DHT22;31328;51.402;0.016;2022-07-21T15:28:10;24.00;64.30
24902;DHT22;31328;51.402;0.016;2022-07-21T15:30:36;24.00;64.30
24902;DHT22;31328;51.402;0.016;2022-07-21T15:33:03;24.00;64.40
24902;DHT22;31328;51.402;0.016;2022-07-21T15:35:30;24.00;65.00
24902;DHT22;31328;51.402;0.016;2022-07-21T15:37:57;24.00;65.30
24902;DHT22;31328;51.402;0.016;2022-07-21T15:40:23;23.90;65.40
24902;DHT22;31328;51.402;0.016;2022-07-21T15:42:50;23.90;65.40
24902;DHT22;31328;51.402;0.016;2022-07-21T15:45:16;23.90;65.30
24902;DHT22;31328;51.402;0.016;2022-07-21T15:47:42;23.90;65.30
24902;DHT22;31328;51.402;0.016;2022-07-21T15:50:09;23.90;65.30
24902;DHT22;31328;51.402;0.016;2022-07-21T15:52:36;23.80;65.30
24902;DHT22;31328;51.402;0.016;2022-07-21T15:55:07;23.80;65.50
24902;DHT22;31328;51.402;0.016;2022-07-21T15:57:34;23.70;65.50
24902;DHT22;31328;51.402;0.016;2022-07-21T16:00:06;23.70;65.80
24902;DHT22;31328;51.402;0.016;2022-07-21T16:02:39;23.70;65.80
24902;DHT22;31328;51.402;0.016;2022-07-21T16:05:12;23.70;65.80
24902;DHT22;31328;51.402;0.016;2022-07-21T16:07:40;23.60;65.70
24902;DHT22;31328;51.402;0.016;2022-07-21T16:10:07;23.50;65.80
24902;DHT22;31328;51.402;0.016;2022-07-21T16:12:34;23.60;65.70
24902;DHT22;31328;51.402;0.016;2022-07-21T16:15:01;23.50;65.70
24902;DHT22;31328;51.402;0.016;2022-07-21T16:17:27;23.50;65.90
24902;DHT22;31328;51.402;0.016;2022-07-21T16:19:53;23.50;66.00